sensor_id;sensor_type;location;lat;lon;timestamp;P1;durP1;ratioP1;P2;durP2;ratioP2
67930;SDS011;63902;52.000;5.954;2023-07-24T00:00:14;5.78;;;1.55;;
67930;SDS011;63902;52.000;5.954;2023-07-24T00:01:15;3.55;;;1.38;;
67930;SDS011;63902;52.000;5.954;2023-07-24T00:02:16;1.90;;;1.20;;
67930;SDS011;63902;52.000;5.954;2023-07-24T00:03:16;5.00;;;1.42;;
67930;SDS011;63902;52.000;5.954;2023-07-24T00:04:17;3.85;;;1.40;;
67930;SDS011;63902;52.000;5.954;2023-07-24T00:05:17;2.38;;;1.45;;
67930;SDS011;63902;52.000;5.954;2023-07-24T00:06:18;1.45;;;1.00;;
67930;SDS011;63902;52.000;5.954;2023-07-24T00:07:18;2.33;;;1.58;;
67930;SDS011;63902;52.000;5.954;2023-07-24T00:08:19;2.75;;;1.45;;
67930;SDS011;63902;52.000;5.954;2023-07-24T00:09:19;3.55;;;1.45;;
67930;SDS011;63902;52.000;5.954;2023-07-24T00:10:20;3.65;;;1.50;;
67930;SDS011;63902;52.000;5.954;2023-07-24T00:11:20;2.35;;;1.50;;
67930;SDS011;63902;52.000;5.954;2023-07-24T00:12:21;4.53;;;1.42;;
67930;SDS011;63902;52.000;5.954;2023-07-24T00:13:22;2.38;;;1.60;;
67930;SDS011;63902;52.000;5.954;2023-07-24T00:14:23;4.45;;;1.58;;
67930;SDS011;63902;52.000;5.954;2023-07-24T00:15:24;2.53;;;1.40;;
67930;SDS011;63902;52.000;5.954;2023-07-24T00:16:24;3.13;;;1.70;;
67930;SDS011;63902;52.000;5.954;2023-07-24T00:17:25;2.60;;;1.40;;
67930;SDS011;63902;52.000;5.954;2023-07-24T00:18:25;2.67;;;1.63;;
67930;SDS011;63902;52.000;5.954;2023-07-24T00:19:26;2.50;;;1.27;;
67930;SDS011;63902;52.000;5.954;2023-07-24T00:20:26;2.60;;;1.50;;
67930;SDS011;63902;52.000;5.954;2023-07-24T00:21:27;2.13;;;1.35;;
67930;SDS011;63902;52.000;5.954;2023-07-24T00:22:27;2.13;;;1.30;;
67930;SDS011;63902;52.000;5.954;2023-07-24T00:23:28;2.72;;;1.42;;
67930;SDS011;63902;52.000;5.954;2023-07-24T00:24:29;2.63;;;1.50;;
67930;SDS011;63902;52.000;5.954;2023-07-24T00:25:29;4.07;;;1.23;;
67930;SDS011;63902;52.000;5.954;2023-07-24T00:26:30;2.42;;;1.73;;
67930;SDS011;63902;52.000;5.954;2023-07-24T00:27:30;3.10;;;1.65;;
67930;SDS011;63902;52.000;5.954;2023-07-24T00:28:32;4.28;;;1.35;;
67930;SDS011;63902;52.000;5.954;2023-07-24T00:29:34;2.45;;;1.45;;
67930;SDS011;63902;52.000;5.954;2023-07-24T00:30:34;2.58;;;1.52;;
67930;SDS011;63902;52.000;5.954;2023-07-24T00:31:35;3.95;;;1.80;;
67930;SDS011;63902;52.000;5.954;2023-07-24T00:32:35;4.60;;;1.52;;
67930;SDS011;63902;52.000;5.954;2023-07-24T00:33:36;2.45;;;1.42;;
67930;SDS011;63902;52.000;5.954;2023-07-24T00:34:36;2.72;;;1.60;;
67930;SDS011;63902;52.000;5.954;2023-07-24T00:35:37;2.72;;;1.60;;
67930;SDS011;63902;52.000;5.954;2023-07-24T00:36:37;3.10;;;1.73;;
67930;SDS011;63902;52.000;5.954;2023-07-24T00:37:38;2.65;;;1.35;;
67930;SDS011;63902;52.000;5.954;2023-07-24T00:38:38;2.67;;;1.58;;
67930;SDS011;63902;52.000;5.954;2023-07-24T00:39:39;3.22;;;1.45;;
67930;SDS011;63902;52.000;5.954;2023-07-24T00:40:39;4.68;;;1.58;;
67930;SDS011;63902;52.000;5.954;2023-07-24T00:41:40;2.42;;;1.38;;
67930;SDS011;63902;52.000;5.954;2023-07-24T00:42:40;1.92;;;1.45;;
67930;SDS011;63902;52.000;5.954;2023-07-24T00:43:45;2.28;;;1.30;;
67930;SDS011;63902;52.000;5.954;2023-07-24T00:44:47;4.03;;;1.70;;
67930;SDS011;63902;52.000;5.954;2023-07-24T00:45:48;4.65;;;1.77;;
67930;SDS011;63902;52.000;5.954;2023-07-24T00:46:48;3.70;;;1.70;;
67930;SDS011;63902;52.000;5.954;2023-07-24T00:47:49;2.85;;;1.55;;
67930;SDS011;63902;52.000;5.954;2023-07-24T00:48:50;2.28;;;1.40;;
67930;SDS011;63902;52.000;5.954;2023-07-24T00:49:51;3.67;;;1.90;;
67930;SDS011;63902;52.000;5.954;2023-07-24T00:50:53;2.53;;;1.65;;
67930;SDS011;63902;52.000;5.954;2023-07-24T00:51:54;2.58;;;1.50;;
67930;SDS011;63902;52.000;5.954;2023-07-24T00:52:54;3.25;;;1.98;;
67930;SDS011;63902;52.000;5.954;2023-07-24T00:53:55;2.78;;;1.70;;
67930;SDS011;63902;52.000;5.954;2023-07-24T00:54:56;3.67;;;1.63;;
67930;SDS011;63902;52.000;5.954;2023-07-24T00:55:57;3.17;;;1.63;;
67930;SDS011;63902;52.000;5.954;2023-07-24T00:56:58;2.65;;;1.60;;
67930;SDS011;63902;52.000;5.954;2023-07-24T00:57:58;6.40;;;1.52;;
67930;SDS011;63902;52.000;5.954;2023-07-24T00:59:00;2.63;;;1.38;;
67930;SDS011;63902;52.000;5.954;2023-07-24T01:00:02;2.17;;;1.45;;
67930;SDS011;63902;52.000;5.954;2023-07-24T01:01:03;3.17;;;1.77;;
67930;SDS011;63902;52.000;5.954;2023-07-24T01:02:04;2.38;;;1.45;;
67930;SDS011;63902;52.000;5.954;2023-07-24T01:03:05;4.00;;;1.58;;
67930;SDS011;63902;52.000;5.954;2023-07-24T01:04:05;2.33;;;1.52;;
67930;SDS011;63902;52.000;5.954;2023-07-24T01:05:07;3.88;;;1.83;;
67930;SDS011;63902;52.000;5.954;2023-07-24T01:06:08;3.88;;;1.40;;
67930;SDS011;63902;52.000;5.954;2023-07-24T01:07:09;3.40;;;1.42;;
67930;SDS011;63902;52.000;5.954;2023-07-24T01:08:10;2.58;;;1.52;;
67930;SDS011;63902;52.000;5.954;2023-07-24T01:09:10;2.67;;;1.40;;
67930;SDS011;63902;52.000;5.954;2023-07-24T01:10:11;5.30;;;1.20;;
67930;SDS011;63902;52.000;5.954;2023-07-24T01:11:14;2.78;;;1.70;;
67930;SDS011;63902;52.000;5.954;2023-07-24T01:12:19;2.60;;;1.40;;
67930;SDS011;63902;52.000;5.954;2023-07-24T01:13:28;3.83;;;1.55;;
67930;SDS011;63902;52.000;5.954;2023-07-24T01:14:36;2.78;;;1.50;;
67930;SDS011;63902;52.000;5.954;2023-07-24T01:15:45;2.50;;;1.55;;
67930;SDS011;63902;52.000;5.954;2023-07-24T01:16:50;2.15;;;1.40;;
67930;SDS011;63902;52.000;5.954;2023-07-24T01:17:56;5.68;;;1.70;;
67930;SDS011;63902;52.000;5.954;2023-07-24T01:18:59;2.13;;;1.38;;
67930;SDS011;63902;52.000;5.954;2023-07-24T01:20:03;2.80;;;1.67;;
67930;SDS011;63902;52.000;5.954;2023-07-24T01:21:09;3.55;;;1.70;;
67930;SDS011;63902;52.000;5.954;2023-07-24T01:22:14;2.70;;;1.50;;
67930;SDS011;63902;52.000;5.954;2023-07-24T01:23:22;2.90;;;1.70;;
67930;SDS011;63902;52.000;5.954;2023-07-24T01:24:30;2.45;;;1.52;;
67930;SDS011;63902;52.000;5.954;2023-07-24T01:26:42;3.33;;;1.70;;
67930;SDS011;63902;52.000;5.954;2023-07-24T01:27:42;2.38;;;1.67;;
67930;SDS011;63902;52.000;5.954;2023-07-24T01:28:43;3.45;;;2.13;;
67930;SDS011;63902;52.000;5.954;2023-07-24T01:29:44;4.45;;;1.52;;
67930;SDS011;63902;52.000;5.954;2023-07-24T01:30:44;2.85;;;1.90;;
67930;SDS011;63902;52.000;5.954;2023-07-24T01:31:45;3.75;;;2.08;;
67930;SDS011;63902;52.000;5.954;2023-07-24T01:32:46;6.03;;;2.20;;
67930;SDS011;63902;52.000;5.954;2023-07-24T01:33:46;3.08;;;1.88;;
67930;SDS011;63902;52.000;5.954;2023-07-24T01:34:47;5.05;;;2.08;;
67930;SDS011;63902;52.000;5.954;2023-07-24T01:35:48;3.10;;;2.15;;
67930;SDS011;63902;52.000;5.954;2023-07-24T01:36:50;4.90;;;2.35;;
67930;SDS011;63902;52.000;5.954;2023-07-24T01:37:51;2.80;;;1.75;;
67930;SDS011;63902;52.000;5.954;2023-07-24T01:38:53;3.97;;;1.77;;
67930;SDS011;63902;52.000;5.954;2023-07-24T01:39:54;3.58;;;2.20;;
67930;SDS011;63902;52.000;5.954;2023-07-24T01:40:58;3.40;;;2.10;;
67930;SDS011;63902;52.000;5.954;2023-07-24T01:41:59;2.92;;;2.03;;
67930;SDS011;63902;52.000;5.954;2023-07-24T01:43:00;3.88;;;2.30;;
67930;SDS011;63902;52.000;5.954;2023-07-24T01:44:01;2.90;;;2.10;;
67930;SDS011;63902;52.000;5.954;2023-07-24T01:45:02;4.07;;;2.13;;
67930;SDS011;63902;52.000;5.954;2023-07-24T01:46:03;3.90;;;2.25;;
67930;SDS011;63902;52.000;5.954;2023-07-24T01:47:03;3.75;;;2.65;;
67930;SDS011;63902;52.000;5.954;2023-07-24T01:48:04;4.30;;;2.60;;
67930;SDS011;63902;52.000;5.954;2023-07-24T01:49:05;3.90;;;2.10;;
67930;SDS011;63902;52.000;5.954;2023-07-24T01:50:06;4.65;;;2.60;;
67930;SDS011;63902;52.000;5.954;2023-07-24T01:51:07;5.20;;;2.30;;
67930;SDS011;63902;52.000;5.954;2023-07-24T01:52:07;3.38;;;2.10;;
67930;SDS011;63902;52.000;5.954;2023-07-24T01:53:08;6.00;;;2.33;;
67930;SDS011;63902;52.000;5.954;2023-07-24T01:54:08;3.88;;;2.45;;
67930;SDS011;63902;52.000;5.954;2023-07-24T01:55:09;3.13;;;2.35;;
67930;SDS011;63902;52.000;5.954;2023-07-24T01:56:11;3.30;;;2.40;;
67930;SDS011;63902;52.000;5.954;2023-07-24T01:57:11;2.72;;;1.80;;
67930;SDS011;63902;52.000;5.954;2023-07-24T01:58:12;3.35;;;2.22;;
67930;SDS011;63902;52.000;5.954;2023-07-24T01:59:12;5.32;;;2.47;;
67930;SDS011;63902;52.000;5.954;2023-07-24T02:00:13;6.30;;;2.45;;
67930;SDS011;63902;52.000;5.954;2023-07-24T02:01:13;3.60;;;2.50;;
67930;SDS011;63902;52.000;5.954;2023-07-24T02:02:14;4.63;;;2.72;;
67930;SDS011;63902;52.000;5.954;2023-07-24T02:03:14;3.30;;;2.28;;
67930;SDS011;63902;52.000;5.954;2023-07-24T02:04:15;3.85;;;2.60;;
67930;SDS011;63902;52.000;5.954;2023-07-24T02:05:15;4.90;;;2.20;;
67930;SDS011;63902;52.000;5.954;2023-07-24T02:06:16;3.20;;;2.30;;
67930;SDS011;63902;52.000;5.954;2023-07-24T02:07:16;3.42;;;2.35;;
67930;SDS011;63902;52.000;5.954;2023-07-24T02:08:17;4.13;;;2.42;;
67930;SDS011;63902;52.000;5.954;2023-07-24T02:09:18;3.15;;;2.30;;
67930;SDS011;63902;52.000;5.954;2023-07-24T02:10:18;3.78;;;2.28;;
67930;SDS011;63902;52.000;5.954;2023-07-24T02:11:20;4.85;;;2.60;;
67930;SDS011;63902;52.000;5.954;2023-07-24T02:12:21;5.50;;;2.50;;
67930;SDS011;63902;52.000;5.954;2023-07-24T02:13:21;2.67;;;2.00;;
67930;SDS011;63902;52.000;5.954;2023-07-24T02:14:22;3.65;;;2.13;;
67930;SDS011;63902;52.000;5.954;2023-07-24T02:15:22;3.65;;;2.25;;
67930;SDS011;63902;52.000;5.954;2023-07-24T02:16:23;5.90;;;2.55;;
67930;SDS011;63902;52.000;5.954;2023-07-24T02:17:23;4.10;;;2.40;;
67930;SDS011;63902;52.000;5.954;2023-07-24T02:18:24;3.55;;;2.10;;
67930;SDS011;63902;52.000;5.954;2023-07-24T02:19:24;6.03;;;2.20;;
67930;SDS011;63902;52.000;5.954;2023-07-24T02:20:25;4.80;;;2.47;;
67930;SDS011;63902;52.000;5.954;2023-07-24T02:21:25;4.90;;;2.25;;
67930;SDS011;63902;52.000;5.954;2023-07-24T02:22:26;3.90;;;2.35;;
67930;SDS011;63902;52.000;5.954;2023-07-24T02:23:26;3.15;;;2.13;;
67930;SDS011;63902;52.000;5.954;2023-07-24T02:24:26;6.05;;;2.30;;
67930;SDS011;63902;52.000;5.954;2023-07-24T02:25:27;4.43;;;2.35;;
67930;SDS011;63902;52.000;5.954;2023-07-24T02:26:29;4.32;;;2.25;;
67930;SDS011;63902;52.000;5.954;2023-07-24T02:27:30;5.55;;;2.40;;
67930;SDS011;63902;52.000;5.954;2023-07-24T02:28:30;4.45;;;2.50;;
67930;SDS011;63902;52.000;5.954;2023-07-24T02:29:31;3.35;;;2.10;;
67930;SDS011;63902;52.000;5.954;2023-07-24T02:30:31;3.25;;;2.20;;
67930;SDS011;63902;52.000;5.954;2023-07-24T02:31:32;3.92;;;2.30;;
67930;SDS011;63902;52.000;5.954;2023-07-24T02:32:33;3.58;;;2.13;;
67930;SDS011;63902;52.000;5.954;2023-07-24T02:33:34;3.65;;;2.38;;
67930;SDS011;63902;52.000;5.954;2023-07-24T02:34:34;3.17;;;2.08;;
67930;SDS011;63902;52.000;5.954;2023-07-24T02:35:38;6.00;;;2.60;;
67930;SDS011;63902;52.000;5.954;2023-07-24T02:36:38;3.75;;;2.40;;
67930;SDS011;63902;52.000;5.954;2023-07-24T02:37:39;3.85;;;2.50;;
67930;SDS011;63902;52.000;5.954;2023-07-24T02:38:39;4.50;;;2.90;;
67930;SDS011;63902;52.000;5.954;2023-07-24T02:39:40;4.25;;;2.40;;
67930;SDS011;63902;52.000;5.954;2023-07-24T02:40:40;4.20;;;2.70;;
67930;SDS011;63902;52.000;5.954;2023-07-24T02:41:42;4.97;;;2.60;;
67930;SDS011;63902;52.000;5.954;2023-07-24T02:42:43;4.13;;;2.47;;
67930;SDS011;63902;52.000;5.954;2023-07-24T02:43:43;3.83;;;2.47;;
67930;SDS011;63902;52.000;5.954;2023-07-24T02:44:44;5.13;;;2.47;;
67930;SDS011;63902;52.000;5.954;2023-07-24T02:45:44;5.30;;;2.33;;
67930;SDS011;63902;52.000;5.954;2023-07-24T02:46:45;5.43;;;2.50;;
67930;SDS011;63902;52.000;5.954;2023-07-24T02:47:45;3.40;;;2.55;;
67930;SDS011;63902;52.000;5.954;2023-07-24T02:48:46;5.18;;;2.83;;
67930;SDS011;63902;52.000;5.954;2023-07-24T02:49:46;3.35;;;2.10;;
67930;SDS011;63902;52.000;5.954;2023-07-24T02:50:47;4.05;;;2.42;;
67930;SDS011;63902;52.000;5.954;2023-07-24T02:51:47;8.15;;;2.60;;
67930;SDS011;63902;52.000;5.954;2023-07-24T02:52:48;3.80;;;2.28;;
67930;SDS011;63902;52.000;5.954;2023-07-24T02:53:48;12.75;;;2.85;;
67930;SDS011;63902;52.000;5.954;2023-07-24T02:54:49;4.28;;;2.70;;
67930;SDS011;63902;52.000;5.954;2023-07-24T02:55:49;5.88;;;2.80;;
67930;SDS011;63902;52.000;5.954;2023-07-24T02:56:51;9.13;;;2.65;;
67930;SDS011;63902;52.000;5.954;2023-07-24T02:57:53;5.47;;;2.60;;
67930;SDS011;63902;52.000;5.954;2023-07-24T02:58:53;6.57;;;2.70;;
67930;SDS011;63902;52.000;5.954;2023-07-24T02:59:54;4.28;;;2.40;;
67930;SDS011;63902;52.000;5.954;2023-07-24T03:00:57;3.67;;;2.75;;
67930;SDS011;63902;52.000;5.954;2023-07-24T03:02:03;5.85;;;2.60;;
67930;SDS011;63902;52.000;5.954;2023-07-24T03:03:03;4.55;;;2.50;;
67930;SDS011;63902;52.000;5.954;2023-07-24T03:04:04;4.05;;;2.70;;
67930;SDS011;63902;52.000;5.954;2023-07-24T03:05:05;4.18;;;2.83;;
67930;SDS011;63902;52.000;5.954;2023-07-24T03:06:05;4.88;;;3.10;;
67930;SDS011;63902;52.000;5.954;2023-07-24T03:07:06;4.57;;;2.78;;
67930;SDS011;63902;52.000;5.954;2023-07-24T03:08:07;4.80;;;2.60;;
67930;SDS011;63902;52.000;5.954;2023-07-24T03:09:07;4.50;;;2.50;;
67930;SDS011;63902;52.000;5.954;2023-07-24T03:10:08;7.85;;;3.30;;
67930;SDS011;63902;52.000;5.954;2023-07-24T03:11:09;5.07;;;2.72;;
67930;SDS011;63902;52.000;5.954;2023-07-24T03:12:11;4.65;;;3.00;;
67930;SDS011;63902;52.000;5.954;2023-07-24T03:13:11;3.95;;;2.75;;
67930;SDS011;63902;52.000;5.954;2023-07-24T03:14:12;5.45;;;3.05;;
67930;SDS011;63902;52.000;5.954;2023-07-24T03:15:12;7.05;;;2.70;;
67930;SDS011;63902;52.000;5.954;2023-07-24T03:16:13;6.50;;;3.00;;
67930;SDS011;63902;52.000;5.954;2023-07-24T03:17:13;4.35;;;2.60;;
67930;SDS011;63902;52.000;5.954;2023-07-24T03:18:14;3.58;;;2.70;;
67930;SDS011;63902;52.000;5.954;2023-07-24T03:19:14;3.70;;;2.53;;
67930;SDS011;63902;52.000;5.954;2023-07-24T03:20:15;6.47;;;3.22;;
67930;SDS011;63902;52.000;5.954;2023-07-24T03:21:18;5.30;;;3.10;;
67930;SDS011;63902;52.000;5.954;2023-07-24T03:22:19;5.15;;;3.05;;
67930;SDS011;63902;52.000;5.954;2023-07-24T03:23:20;6.13;;;2.75;;
67930;SDS011;63902;52.000;5.954;2023-07-24T03:24:20;4.90;;;3.05;;
67930;SDS011;63902;52.000;5.954;2023-07-24T03:25:20;4.93;;;3.15;;
67930;SDS011;63902;52.000;5.954;2023-07-24T03:26:21;5.57;;;2.70;;
67930;SDS011;63902;52.000;5.954;2023-07-24T03:27:23;6.45;;;3.55;;
67930;SDS011;63902;52.000;5.954;2023-07-24T03:28:23;6.30;;;3.03;;
67930;SDS011;63902;52.000;5.954;2023-07-24T03:29:24;4.90;;;3.08;;
67930;SDS011;63902;52.000;5.954;2023-07-24T03:30:24;8.00;;;3.05;;
67930;SDS011;63902;52.000;5.954;2023-07-24T03:31:25;5.80;;;3.10;;
67930;SDS011;63902;52.000;5.954;2023-07-24T03:32:25;5.10;;;3.03;;
67930;SDS011;63902;52.000;5.954;2023-07-24T03:33:26;6.25;;;3.08;;
67930;SDS011;63902;52.000;5.954;2023-07-24T03:34:26;6.72;;;3.05;;
67930;SDS011;63902;52.000;5.954;2023-07-24T03:35:27;5.85;;;3.15;;
67930;SDS011;63902;52.000;5.954;2023-07-24T03:36:27;7.68;;;3.22;;
67930;SDS011;63902;52.000;5.954;2023-07-24T03:37:28;5.97;;;3.50;;
67930;SDS011;63902;52.000;5.954;2023-07-24T03:38:28;4.82;;;3.28;;
67930;SDS011;63902;52.000;5.954;2023-07-24T03:39:29;5.40;;;3.25;;
67930;SDS011;63902;52.000;5.954;2023-07-24T03:40:29;6.75;;;3.03;;
67930;SDS011;63902;52.000;5.954;2023-07-24T03:41:30;7.07;;;3.40;;
67930;SDS011;63902;52.000;5.954;2023-07-24T03:42:32;5.78;;;3.63;;
67930;SDS011;63902;52.000;5.954;2023-07-24T03:43:32;6.32;;;3.58;;
67930;SDS011;63902;52.000;5.954;2023-07-24T03:44:33;5.80;;;3.40;;
67930;SDS011;63902;52.000;5.954;2023-07-24T03:45:33;5.80;;;3.70;;
67930;SDS011;63902;52.000;5.954;2023-07-24T03:46:34;7.85;;;3.55;;
67930;SDS011;63902;52.000;5.954;2023-07-24T03:47:34;6.28;;;3.28;;
67930;SDS011;63902;52.000;5.954;2023-07-24T03:48:35;6.15;;;3.45;;
67930;SDS011;63902;52.000;5.954;2023-07-24T03:49:35;7.40;;;3.83;;
67930;SDS011;63902;52.000;5.954;2023-07-24T03:50:35;4.13;;;3.33;;
67930;SDS011;63902;52.000;5.954;2023-07-24T03:51:36;7.18;;;4.25;;
67930;SDS011;63902;52.000;5.954;2023-07-24T03:52:36;6.63;;;3.60;;
67930;SDS011;63902;52.000;5.954;2023-07-24T03:53:37;6.35;;;4.40;;
67930;SDS011;63902;52.000;5.954;2023-07-24T03:54:37;4.43;;;3.60;;
67930;SDS011;63902;52.000;5.954;2023-07-24T03:55:38;6.40;;;3.85;;
67930;SDS011;63902;52.000;5.954;2023-07-24T03:56:38;7.32;;;3.88;;
67930;SDS011;63902;52.000;5.954;2023-07-24T03:57:40;6.70;;;4.63;;
67930;SDS011;63902;52.000;5.954;2023-07-24T03:58:41;5.75;;;3.97;;
67930;SDS011;63902;52.000;5.954;2023-07-24T03:59:41;7.53;;;4.00;;
67930;SDS011;63902;52.000;5.954;2023-07-24T04:00:42;5.78;;;3.70;;
67930;SDS011;63902;52.000;5.954;2023-07-24T04:01:42;5.45;;;3.50;;
67930;SDS011;63902;52.000;5.954;2023-07-24T04:02:43;7.70;;;4.18;;
67930;SDS011;63902;52.000;5.954;2023-07-24T04:03:44;5.53;;;4.05;;
67930;SDS011;63902;52.000;5.954;2023-07-24T04:04:45;6.05;;;3.88;;
67930;SDS011;63902;52.000;5.954;2023-07-24T04:05:45;7.43;;;4.25;;
67930;SDS011;63902;52.000;5.954;2023-07-24T04:06:46;5.28;;;4.05;;
67930;SDS011;63902;52.000;5.954;2023-07-24T04:07:47;5.75;;;3.90;;
67930;SDS011;63902;52.000;5.954;2023-07-24T04:08:47;5.78;;;4.20;;
67930;SDS011;63902;52.000;5.954;2023-07-24T04:09:48;7.03;;;3.97;;
67930;SDS011;63902;52.000;5.954;2023-07-24T04:10:48;6.82;;;4.47;;
67930;SDS011;63902;52.000;5.954;2023-07-24T04:11:49;5.43;;;3.85;;
67930;SDS011;63902;52.000;5.954;2023-07-24T04:12:51;5.90;;;3.38;;
67930;SDS011;63902;52.000;5.954;2023-07-24T04:13:51;5.38;;;3.70;;
67930;SDS011;63902;52.000;5.954;2023-07-24T04:14:52;5.13;;;3.58;;
67930;SDS011;63902;52.000;5.954;2023-07-24T04:15:52;6.22;;;3.97;;
67930;SDS011;63902;52.000;5.954;2023-07-24T04:16:53;6.05;;;3.60;;
67930;SDS011;63902;52.000;5.954;2023-07-24T04:17:53;7.93;;;3.55;;
67930;SDS011;63902;52.000;5.954;2023-07-24T04:18:54;6.95;;;4.00;;
67930;SDS011;63902;52.000;5.954;2023-07-24T04:19:54;5.28;;;3.40;;
67930;SDS011;63902;52.000;5.954;2023-07-24T04:20:55;9.73;;;3.58;;
67930;SDS011;63902;52.000;5.954;2023-07-24T04:21:55;7.13;;;4.20;;
67930;SDS011;63902;52.000;5.954;2023-07-24T04:22:56;5.45;;;3.53;;
67930;SDS011;63902;52.000;5.954;2023-07-24T04:23:56;5.68;;;3.70;;
67930;SDS011;63902;52.000;5.954;2023-07-24T04:24:57;5.38;;;3.50;;
67930;SDS011;63902;52.000;5.954;2023-07-24T04:25:57;5.85;;;3.20;;
67930;SDS011;63902;52.000;5.954;2023-07-24T04:26:58;5.40;;;3.42;;
67930;SDS011;63902;52.000;5.954;2023-07-24T04:28:00;5.22;;;3.53;;
67930;SDS011;63902;52.000;5.954;2023-07-24T04:29:00;6.13;;;3.33;;
67930;SDS011;63902;52.000;5.954;2023-07-24T04:30:01;5.75;;;3.50;;
67930;SDS011;63902;52.000;5.954;2023-07-24T04:31:01;5.38;;;3.28;;
67930;SDS011;63902;52.000;5.954;2023-07-24T04:32:02;4.95;;;3.28;;
67930;SDS011;63902;52.000;5.954;2023-07-24T04:33:03;5.43;;;3.60;;
67930;SDS011;63902;52.000;5.954;2023-07-24T04:34:03;5.47;;;3.38;;
67930;SDS011;63902;52.000;5.954;2023-07-24T04:35:04;5.80;;;3.50;;
67930;SDS011;63902;52.000;5.954;2023-07-24T04:36:05;5.10;;;2.92;;
67930;SDS011;63902;52.000;5.954;2023-07-24T04:37:06;7.85;;;3.50;;
67930;SDS011;63902;52.000;5.954;2023-07-24T04:38:07;6.03;;;3.42;;
67930;SDS011;63902;52.000;5.954;2023-07-24T04:39:07;4.63;;;3.05;;
67930;SDS011;63902;52.000;5.954;2023-07-24T04:40:08;5.45;;;3.53;;
67930;SDS011;63902;52.000;5.954;2023-07-24T04:41:09;6.95;;;3.72;;
67930;SDS011;63902;52.000;5.954;2023-07-24T04:42:09;4.40;;;3.40;;
67930;SDS011;63902;52.000;5.954;2023-07-24T04:43:11;5.55;;;3.30;;
67930;SDS011;63902;52.000;5.954;2023-07-24T04:44:12;5.70;;;3.35;;
67930;SDS011;63902;52.000;5.954;2023-07-24T04:45:12;5.88;;;3.50;;
67930;SDS011;63902;52.000;5.954;2023-07-24T04:46:13;5.43;;;3.35;;
67930;SDS011;63902;52.000;5.954;2023-07-24T04:47:13;5.35;;;3.30;;
67930;SDS011;63902;52.000;5.954;2023-07-24T04:48:14;5.13;;;3.25;;
67930;SDS011;63902;52.000;5.954;2023-07-24T04:49:14;7.47;;;3.35;;
67930;SDS011;63902;52.000;5.954;2023-07-24T04:50:15;5.80;;;3.40;;
67930;SDS011;63902;52.000;5.954;2023-07-24T04:51:15;5.65;;;3.13;;
67930;SDS011;63902;52.000;5.954;2023-07-24T04:52:16;5.18;;;3.42;;
67930;SDS011;63902;52.000;5.954;2023-07-24T04:53:16;8.05;;;3.55;;
67930;SDS011;63902;52.000;5.954;2023-07-24T04:54:17;4.88;;;3.47;;
67930;SDS011;63902;52.000;5.954;2023-07-24T04:55:17;6.00;;;3.20;;
67930;SDS011;63902;52.000;5.954;2023-07-24T04:56:18;4.30;;;3.25;;
67930;SDS011;63902;52.000;5.954;2023-07-24T04:57:18;4.47;;;3.30;;
67930;SDS011;63902;52.000;5.954;2023-07-24T04:58:20;4.88;;;3.50;;
67930;SDS011;63902;52.000;5.954;2023-07-24T04:59:20;5.20;;;3.65;;
67930;SDS011;63902;52.000;5.954;2023-07-24T05:00:21;8.35;;;3.55;;
67930;SDS011;63902;52.000;5.954;2023-07-24T05:01:21;9.43;;;3.70;;
67930;SDS011;63902;52.000;5.954;2023-07-24T05:02:22;5.47;;;3.67;;
67930;SDS011;63902;52.000;5.954;2023-07-24T05:03:22;5.38;;;3.90;;
67930;SDS011;63902;52.000;5.954;2023-07-24T05:04:23;5.25;;;3.58;;
67930;SDS011;63902;52.000;5.954;2023-07-24T05:05:23;4.82;;;3.40;;
67930;SDS011;63902;52.000;5.954;2023-07-24T05:06:24;5.97;;;4.10;;
67930;SDS011;63902;52.000;5.954;2023-07-24T05:07:24;5.40;;;3.47;;
67930;SDS011;63902;52.000;5.954;2023-07-24T05:08:25;7.65;;;3.83;;
67930;SDS011;63902;52.000;5.954;2023-07-24T05:09:25;6.88;;;4.05;;
67930;SDS011;63902;52.000;5.954;2023-07-24T05:10:26;6.60;;;3.80;;
67930;SDS011;63902;52.000;5.954;2023-07-24T05:11:26;4.65;;;3.60;;
67930;SDS011;63902;52.000;5.954;2023-07-24T05:12:27;9.60;;;4.18;;
67930;SDS011;63902;52.000;5.954;2023-07-24T05:13:29;5.28;;;3.72;;
67930;SDS011;63902;52.000;5.954;2023-07-24T05:14:29;6.28;;;4.00;;
67930;SDS011;63902;52.000;5.954;2023-07-24T05:15:30;10.32;;;3.97;;
67930;SDS011;63902;52.000;5.954;2023-07-24T05:16:30;5.82;;;4.05;;
67930;SDS011;63902;52.000;5.954;2023-07-24T05:17:31;5.18;;;3.85;;
67930;SDS011;63902;52.000;5.954;2023-07-24T05:18:31;9.25;;;4.20;;
67930;SDS011;63902;52.000;5.954;2023-07-24T05:19:32;6.22;;;3.63;;
67930;SDS011;63902;52.000;5.954;2023-07-24T05:20:32;6.75;;;5.07;;
67930;SDS011;63902;52.000;5.954;2023-07-24T05:21:33;6.03;;;4.25;;
67930;SDS011;63902;52.000;5.954;2023-07-24T05:22:33;6.63;;;4.45;;
67930;SDS011;63902;52.000;5.954;2023-07-24T05:23:33;7.30;;;3.95;;
67930;SDS011;63902;52.000;5.954;2023-07-24T05:24:34;6.30;;;4.20;;
67930;SDS011;63902;52.000;5.954;2023-07-24T05:25:34;6.50;;;4.22;;
67930;SDS011;63902;52.000;5.954;2023-07-24T05:26:35;5.32;;;4.10;;
67930;SDS011;63902;52.000;5.954;2023-07-24T05:27:35;7.22;;;4.15;;
67930;SDS011;63902;52.000;5.954;2023-07-24T05:28:37;5.88;;;4.40;;
67930;SDS011;63902;52.000;5.954;2023-07-24T05:29:38;9.55;;;4.50;;
67930;SDS011;63902;52.000;5.954;2023-07-24T05:30:38;5.60;;;4.15;;
67930;SDS011;63902;52.000;5.954;2023-07-24T05:31:39;7.07;;;4.85;;
67930;SDS011;63902;52.000;5.954;2023-07-24T05:32:39;6.43;;;4.40;;
67930;SDS011;63902;52.000;5.954;2023-07-24T05:33:40;7.88;;;4.75;;
67930;SDS011;63902;52.000;5.954;2023-07-24T05:34:40;8.25;;;4.90;;
67930;SDS011;63902;52.000;5.954;2023-07-24T05:35:41;9.10;;;4.97;;
67930;SDS011;63902;52.000;5.954;2023-07-24T05:36:41;6.75;;;4.50;;
67930;SDS011;63902;52.000;5.954;2023-07-24T05:37:42;7.45;;;5.03;;
67930;SDS011;63902;52.000;5.954;2023-07-24T05:38:42;9.20;;;5.05;;
67930;SDS011;63902;52.000;5.954;2023-07-24T05:39:43;7.80;;;4.75;;
67930;SDS011;63902;52.000;5.954;2023-07-24T05:40:43;6.70;;;4.80;;
67930;SDS011;63902;52.000;5.954;2023-07-24T05:41:44;6.55;;;4.57;;
67930;SDS011;63902;52.000;5.954;2023-07-24T05:42:45;8.32;;;5.10;;
67930;SDS011;63902;52.000;5.954;2023-07-24T05:43:47;6.43;;;4.95;;
67930;SDS011;63902;52.000;5.954;2023-07-24T05:44:48;8.02;;;5.47;;
67930;SDS011;63902;52.000;5.954;2023-07-24T05:45:48;8.95;;;4.97;;
67930;SDS011;63902;52.000;5.954;2023-07-24T05:46:49;7.57;;;4.80;;
67930;SDS011;63902;52.000;5.954;2023-07-24T05:47:49;7.28;;;5.13;;
67930;SDS011;63902;52.000;5.954;2023-07-24T05:48:50;8.57;;;4.85;;
67930;SDS011;63902;52.000;5.954;2023-07-24T05:49:50;13.50;;;5.65;;
67930;SDS011;63902;52.000;5.954;2023-07-24T05:50:51;11.95;;;5.70;;
67930;SDS011;63902;52.000;5.954;2023-07-24T05:51:51;7.72;;;5.30;;
67930;SDS011;63902;52.000;5.954;2023-07-24T05:52:52;10.38;;;6.13;;
67930;SDS011;63902;52.000;5.954;2023-07-24T05:53:52;9.73;;;6.07;;
67930;SDS011;63902;52.000;5.954;2023-07-24T05:54:53;6.28;;;4.90;;
67930;SDS011;63902;52.000;5.954;2023-07-24T05:55:57;8.70;;;5.35;;
67930;SDS011;63902;52.000;5.954;2023-07-24T05:56:58;9.15;;;5.78;;
67930;SDS011;63902;52.000;5.954;2023-07-24T05:57:58;8.45;;;5.80;;
67930;SDS011;63902;52.000;5.954;2023-07-24T05:59:00;7.25;;;5.65;;
67930;SDS011;63902;52.000;5.954;2023-07-24T06:00:01;7.65;;;5.63;;
67930;SDS011;63902;52.000;5.954;2023-07-24T06:01:01;7.40;;;5.38;;
67930;SDS011;63902;52.000;5.954;2023-07-24T06:02:02;7.25;;;5.53;;
67930;SDS011;63902;52.000;5.954;2023-07-24T06:03:03;12.15;;;5.78;;
67930;SDS011;63902;52.000;5.954;2023-07-24T06:04:03;7.50;;;5.65;;
67930;SDS011;63902;52.000;5.954;2023-07-24T06:05:04;9.00;;;5.60;;
67930;SDS011;63902;52.000;5.954;2023-07-24T06:06:05;7.72;;;5.70;;
67930;SDS011;63902;52.000;5.954;2023-07-24T06:07:05;10.15;;;5.40;;
67930;SDS011;63902;52.000;5.954;2023-07-24T06:08:06;8.32;;;5.38;;